sensor_id;sensor_type;location;lat;lon;timestamp;P1;durP1;ratioP1;P2;durP2;ratioP2
59930;SDS011;45790;51.538;6.736;2022-08-19T00:02:04;6.43;;;3.25;;
59930;SDS011;45790;51.538;6.736;2022-08-19T00:04:30;4.03;;;2.75;;
59930;SDS011;45790;51.538;6.736;2022-08-19T00:06:59;5.07;;;2.60;;
59930;SDS011;45790;51.538;6.736;2022-08-19T00:09:25;6.85;;;2.70;;
59930;SDS011;45790;51.538;6.736;2022-08-19T00:11:51;6.88;;;2.67;;
59930;SDS011;45790;51.538;6.736;2022-08-19T00:14:18;4.68;;;2.90;;
59930;SDS011;45790;51.538;6.736;2022-08-19T00:16:46;3.67;;;2.35;;
59930;SDS011;45790;51.538;6.736;2022-08-19T00:19:12;5.68;;;2.95;;
59930;SDS011;45790;51.538;6.736;2022-08-19T00:21:37;4.97;;;2.50;;
59930;SDS011;45790;51.538;6.736;2022-08-19T00:24:07;4.70;;;2.67;;
59930;SDS011;45790;51.538;6.736;2022-08-19T00:26:33;4.63;;;2.80;;
59930;SDS011;45790;51.538;6.736;2022-08-19T00:28:58;4.30;;;2.83;;
59930;SDS011;45790;51.538;6.736;2022-08-19T00:31:25;4.20;;;2.58;;
59930;SDS011;45790;51.538;6.736;2022-08-19T00:33:54;6.00;;;2.83;;
59930;SDS011;45790;51.538;6.736;2022-08-19T00:36:20;4.20;;;2.65;;
59930;SDS011;45790;51.538;6.736;2022-08-19T00:38:48;4.70;;;2.80;;
59930;SDS011;45790;51.538;6.736;2022-08-19T00:41:17;3.65;;;2.67;;
59930;SDS011;45790;51.538;6.736;2022-08-19T00:43:56;5.20;;;2.83;;
59930;SDS011;45790;51.538;6.736;2022-08-19T00:46:23;5.93;;;2.85;;
59930;SDS011;45790;51.538;6.736;2022-08-19T00:48:49;6.63;;;2.90;;
59930;SDS011;45790;51.538;6.736;2022-08-19T00:51:17;4.85;;;2.38;;
59930;SDS011;45790;51.538;6.736;2022-08-19T00:53:42;8.30;;;3.05;;
59930;SDS011;45790;51.538;6.736;2022-08-19T00:56:08;5.30;;;2.78;;
59930;SDS011;45790;51.538;6.736;2022-08-19T00:58:34;4.63;;;2.83;;
59930;SDS011;45790;51.538;6.736;2022-08-19T01:01:00;5.00;;;2.72;;
59930;SDS011;45790;51.538;6.736;2022-08-19T01:03:26;4.70;;;2.97;;
59930;SDS011;45790;51.538;6.736;2022-08-19T01:05:52;4.80;;;2.72;;
59930;SDS011;45790;51.538;6.736;2022-08-19T01:08:19;3.50;;;2.50;;
59930;SDS011;45790;51.538;6.736;2022-08-19T01:10:47;5.20;;;2.90;;
59930;SDS011;45790;51.538;6.736;2022-08-19T01:13:15;4.22;;;2.60;;
59930;SDS011;45790;51.538;6.736;2022-08-19T01:15:44;4.60;;;2.80;;
59930;SDS011;45790;51.538;6.736;2022-08-19T01:18:12;4.35;;;2.75;;
59930;SDS011;45790;51.538;6.736;2022-08-19T01:20:39;3.63;;;2.67;;
59930;SDS011;45790;51.538;6.736;2022-08-19T01:23:05;4.70;;;2.90;;
59930;SDS011;45790;51.538;6.736;2022-08-19T01:25:32;4.07;;;2.72;;
59930;SDS011;45790;51.538;6.736;2022-08-19T01:28:05;3.53;;;2.50;;
59930;SDS011;45790;51.538;6.736;2022-08-19T01:30:33;3.67;;;2.47;;
59930;SDS011;45790;51.538;6.736;2022-08-19T01:32:59;5.13;;;2.80;;
59930;SDS011;45790;51.538;6.736;2022-08-19T01:35:26;4.75;;;2.30;;
59930;SDS011;45790;51.538;6.736;2022-08-19T01:37:54;4.97;;;2.72;;
59930;SDS011;45790;51.538;6.736;2022-08-19T01:40:27;3.42;;;2.20;;
59930;SDS011;45790;51.538;6.736;2022-08-19T01:42:57;3.50;;;2.50;;
59930;SDS011;45790;51.538;6.736;2022-08-19T01:45:24;3.53;;;2.45;;
59930;SDS011;45790;51.538;6.736;2022-08-19T01:47:50;3.83;;;2.42;;
59930;SDS011;45790;51.538;6.736;2022-08-19T01:50:15;3.40;;;2.30;;
59930;SDS011;45790;51.538;6.736;2022-08-19T01:52:42;3.80;;;2.63;;
59930;SDS011;45790;51.538;6.736;2022-08-19T01:55:09;3.80;;;2.63;;
59930;SDS011;45790;51.538;6.736;2022-08-19T01:57:37;4.07;;;2.38;;
59930;SDS011;45790;51.538;6.736;2022-08-19T02:00:06;5.22;;;2.97;;
59930;SDS011;45790;51.538;6.736;2022-08-19T02:02:33;4.33;;;2.43;;
59930;SDS011;45790;51.538;6.736;2022-08-19T02:04:58;4.30;;;2.30;;
59930;SDS011;45790;51.538;6.736;2022-08-19T02:07:24;5.80;;;2.83;;
59930;SDS011;45790;51.538;6.736;2022-08-19T02:09:49;4.30;;;2.30;;
59930;SDS011;45790;51.538;6.736;2022-08-19T02:12:14;4.10;;;2.67;;
59930;SDS011;45790;51.538;6.736;2022-08-19T02:14:41;3.55;;;2.35;;
59930;SDS011;45790;51.538;6.736;2022-08-19T02:17:06;4.28;;;2.50;;
59930;SDS011;45790;51.538;6.736;2022-08-19T02:19:32;4.38;;;2.30;;
59930;SDS011;45790;51.538;6.736;2022-08-19T02:21:58;3.45;;;2.55;;
59930;SDS011;45790;51.538;6.736;2022-08-19T02:24:23;3.50;;;2.30;;
59930;SDS011;45790;51.538;6.736;2022-08-19T02:26:49;4.05;;;2.35;;
59930;SDS011;45790;51.538;6.736;2022-08-19T02:29:14;3.20;;;2.38;;
59930;SDS011;45790;51.538;6.736;2022-08-19T02:31:40;5.75;;;2.67;;
59930;SDS011;45790;51.538;6.736;2022-08-19T02:34:05;4.97;;;2.80;;
59930;SDS011;45790;51.538;6.736;2022-08-19T02:36:30;3.47;;;2.30;;
59930;SDS011;45790;51.538;6.736;2022-08-19T02:38:56;4.47;;;2.45;;
59930;SDS011;45790;51.538;6.736;2022-08-19T02:41:22;4.55;;;2.30;;
59930;SDS011;45790;51.538;6.736;2022-08-19T02:43:50;3.72;;;2.60;;
59930;SDS011;45790;51.538;6.736;2022-08-19T02:46:20;3.75;;;2.42;;
59930;SDS011;45790;51.538;6.736;2022-08-19T02:48:48;3.33;;;2.50;;
59930;SDS011;45790;51.538;6.736;2022-08-19T02:51:22;5.20;;;2.42;;
59930;SDS011;45790;51.538;6.736;2022-08-19T02:53:56;5.95;;;2.78;;
59930;SDS011;45790;51.538;6.736;2022-08-19T02:56:21;3.28;;;2.25;;
59930;SDS011;45790;51.538;6.736;2022-08-19T02:58:47;3.88;;;2.40;;
59930;SDS011;45790;51.538;6.736;2022-08-19T03:01:26;3.15;;;2.28;;
59930;SDS011;45790;51.538;6.736;2022-08-19T03:03:53;4.03;;;2.25;;
59930;SDS011;45790;51.538;6.736;2022-08-19T03:06:20;3.20;;;2.38;;
59930;SDS011;45790;51.538;6.736;2022-08-19T03:08:47;2.72;;;2.20;;
59930;SDS011;45790;51.538;6.736;2022-08-19T03:11:15;3.50;;;2.40;;
59930;SDS011;45790;51.538;6.736;2022-08-19T03:13:58;3.67;;;2.50;;
59930;SDS011;45790;51.538;6.736;2022-08-19T03:16:25;5.07;;;2.72;;
59930;SDS011;45790;51.538;6.736;2022-08-19T03:18:52;5.00;;;2.47;;
59930;SDS011;45790;51.538;6.736;2022-08-19T03:21:22;3.58;;;2.33;;
59930;SDS011;45790;51.538;6.736;2022-08-19T03:23:49;3.60;;;2.70;;
59930;SDS011;45790;51.538;6.736;2022-08-19T03:26:15;4.05;;;2.40;;
59930;SDS011;45790;51.538;6.736;2022-08-19T03:28:41;5.15;;;2.83;;
59930;SDS011;45790;51.538;6.736;2022-08-19T03:31:10;4.60;;;2.50;;
59930;SDS011;45790;51.538;6.736;2022-08-19T03:33:37;3.85;;;2.58;;
59930;SDS011;45790;51.538;6.736;2022-08-19T03:36:07;4.63;;;2.80;;
59930;SDS011;45790;51.538;6.736;2022-08-19T03:38:46;4.78;;;2.80;;
59930;SDS011;45790;51.538;6.736;2022-08-19T03:41:16;3.58;;;2.45;;
59930;SDS011;45790;51.538;6.736;2022-08-19T03:43:44;3.90;;;2.70;;
59930;SDS011;45790;51.538;6.736;2022-08-19T03:46:25;4.38;;;2.90;;
59930;SDS011;45790;51.538;6.736;2022-08-19T03:48:54;4.40;;;2.55;;
59930;SDS011;45790;51.538;6.736;2022-08-19T03:51:22;4.35;;;2.70;;
59930;SDS011;45790;51.538;6.736;2022-08-19T03:53:50;5.20;;;2.75;;
59930;SDS011;45790;51.538;6.736;2022-08-19T03:56:15;3.83;;;2.60;;
59930;SDS011;45790;51.538;6.736;2022-08-19T03:58:41;4.00;;;2.60;;
59930;SDS011;45790;51.538;6.736;2022-08-19T04:01:08;4.80;;;2.50;;
59930;SDS011;45790;51.538;6.736;2022-08-19T04:03:34;3.60;;;2.65;;
59930;SDS011;45790;51.538;6.736;2022-08-19T04:06:08;4.30;;;2.63;;
59930;SDS011;45790;51.538;6.736;2022-08-19T04:08:35;3.45;;;2.30;;
59930;SDS011;45790;51.538;6.736;2022-08-19T04:11:01;4.80;;;3.20;;
59930;SDS011;45790;51.538;6.736;2022-08-19T04:13:26;4.50;;;2.42;;
59930;SDS011;45790;51.538;6.736;2022-08-19T04:15:52;4.15;;;2.50;;
59930;SDS011;45790;51.538;6.736;2022-08-19T04:18:18;5.00;;;2.97;;
59930;SDS011;45790;51.538;6.736;2022-08-19T04:20:45;3.63;;;2.70;;
59930;SDS011;45790;51.538;6.736;2022-08-19T04:23:12;4.70;;;2.75;;
59930;SDS011;45790;51.538;6.736;2022-08-19T04:25:39;5.03;;;2.92;;
59930;SDS011;45790;51.538;6.736;2022-08-19T04:28:05;5.85;;;3.03;;
59930;SDS011;45790;51.538;6.736;2022-08-19T04:30:37;5.18;;;2.70;;
59930;SDS011;45790;51.538;6.736;2022-08-19T04:33:06;5.13;;;3.03;;
59930;SDS011;45790;51.538;6.736;2022-08-19T04:35:36;5.03;;;3.33;;
59930;SDS011;45790;51.538;6.736;2022-08-19T04:38:03;5.35;;;2.67;;
59930;SDS011;45790;51.538;6.736;2022-08-19T04:40:29;6.85;;;3.05;;
59930;SDS011;45790;51.538;6.736;2022-08-19T04:43:26;5.10;;;2.78;;
59930;SDS011;45790;51.538;6.736;2022-08-19T04:45:52;4.85;;;3.00;;
59930;SDS011;45790;51.538;6.736;2022-08-19T04:48:18;4.85;;;3.00;;
59930;SDS011;45790;51.538;6.736;2022-08-19T04:50:51;9.20;;;3.92;;
59930;SDS011;45790;51.538;6.736;2022-08-19T04:53:22;8.35;;;3.28;;
59930;SDS011;45790;51.538;6.736;2022-08-19T04:55:55;6.28;;;3.35;;
59930;SDS011;45790;51.538;6.736;2022-08-19T04:58:21;5.05;;;3.25;;
59930;SDS011;45790;51.538;6.736;2022-08-19T05:00:47;6.43;;;3.00;;
59930;SDS011;45790;51.538;6.736;2022-08-19T05:03:12;7.38;;;3.35;;
59930;SDS011;45790;51.538;6.736;2022-08-19T05:05:42;6.27;;;3.40;;
59930;SDS011;45790;51.538;6.736;2022-08-19T05:08:08;4.95;;;3.17;;
59930;SDS011;45790;51.538;6.736;2022-08-19T05:10:39;5.20;;;3.13;;
59930;SDS011;45790;51.538;6.736;2022-08-19T05:13:05;6.60;;;3.75;;
59930;SDS011;45790;51.538;6.736;2022-08-19T05:15:31;5.70;;;3.53;;
59930;SDS011;45790;51.538;6.736;2022-08-19T05:24:39;5.78;;;3.33;;
59930;SDS011;45790;51.538;6.736;2022-08-19T05:27:05;6.57;;;4.22;;
59930;SDS011;45790;51.538;6.736;2022-08-19T05:29:31;6.47;;;3.90;;
59930;SDS011;45790;51.538;6.736;2022-08-19T05:31:57;7.15;;;3.95;;
59930;SDS011;45790;51.538;6.736;2022-08-19T05:34:24;6.30;;;3.85;;
59930;SDS011;45790;51.538;6.736;2022-08-19T05:36:52;7.90;;;4.47;;
59930;SDS011;45790;51.538;6.736;2022-08-19T05:41:47;6.80;;;4.35;;
59930;SDS011;45790;51.538;6.736;2022-08-19T05:44:15;5.57;;;4.20;;
59930;SDS011;45790;51.538;6.736;2022-08-19T05:46:42;5.60;;;4.30;;
59930;SDS011;45790;51.538;6.736;2022-08-19T05:51:37;8.82;;;5.25;;
59930;SDS011;45790;51.538;6.736;2022-08-19T05:54:02;7.80;;;5.00;;
59930;SDS011;45790;51.538;6.736;2022-08-19T05:56:29;7.88;;;5.18;;
59930;SDS011;45790;51.538;6.736;2022-08-19T05:58:55;6.10;;;4.00;;
59930;SDS011;45790;51.538;6.736;2022-08-19T06:01:21;6.57;;;4.22;;
59930;SDS011;45790;51.538;6.736;2022-08-19T06:03:46;5.65;;;4.55;;
59930;SDS011;45790;51.538;6.736;2022-08-19T06:06:13;5.55;;;4.13;;
59930;SDS011;45790;51.538;6.736;2022-08-19T06:08:39;7.38;;;4.55;;
59930;SDS011;45790;51.538;6.736;2022-08-19T06:11:39;5.40;;;3.55;;
59930;SDS011;45790;51.538;6.736;2022-08-19T06:14:19;5.00;;;3.60;;
59930;SDS011;45790;51.538;6.736;2022-08-19T06:16:47;6.28;;;4.18;;
59930;SDS011;45790;51.538;6.736;2022-08-19T06:19:13;6.85;;;4.10;;
59930;SDS011;45790;51.538;6.736;2022-08-19T06:21:41;7.35;;;3.92;;
59930;SDS011;45790;51.538;6.736;2022-08-19T06:24:09;7.05;;;4.30;;
59930;SDS011;45790;51.538;6.736;2022-08-19T06:26:37;6.18;;;4.13;;
59930;SDS011;45790;51.538;6.736;2022-08-19T06:29:04;6.72;;;4.50;;
59930;SDS011;45790;51.538;6.736;2022-08-19T06:31:31;5.35;;;3.70;;
59930;SDS011;45790;51.538;6.736;2022-08-19T06:33:59;5.85;;;4.20;;
59930;SDS011;45790;51.538;6.736;2022-08-19T06:36:28;6.65;;;4.00;;
59930;SDS011;45790;51.538;6.736;2022-08-19T06:38:58;6.15;;;4.07;;
59930;SDS011;45790;51.538;6.736;2022-08-19T06:41:25;7.03;;;4.30;;
59930;SDS011;45790;51.538;6.736;2022-08-19T06:43:51;6.57;;;4.45;;
59930;SDS011;45790;51.538;6.736;2022-08-19T06:46:17;7.13;;;4.18;;
59930;SDS011;45790;51.538;6.736;2022-08-19T06:48:44;5.32;;;4.13;;
59930;SDS011;45790;51.538;6.736;2022-08-19T06:51:10;6.30;;;4.38;;
59930;SDS011;45790;51.538;6.736;2022-08-19T06:53:35;4.97;;;4.07;;
59930;SDS011;45790;51.538;6.736;2022-08-19T06:56:01;6.45;;;4.25;;
59930;SDS011;45790;51.538;6.736;2022-08-19T06:58:26;6.78;;;4.18;;
59930;SDS011;45790;51.538;6.736;2022-08-19T07:00:53;5.38;;;3.90;;
59930;SDS011;45790;51.538;6.736;2022-08-19T07:03:18;6.78;;;4.07;;
59930;SDS011;45790;51.538;6.736;2022-08-19T07:05:43;4.95;;;3.88;;
59930;SDS011;45790;51.538;6.736;2022-08-19T07:08:09;5.25;;;3.85;;
59930;SDS011;45790;51.538;6.736;2022-08-19T07:10:34;5.35;;;4.07;;
59930;SDS011;45790;51.538;6.736;2022-08-19T07:13:01;6.90;;;4.15;;
59930;SDS011;45790;51.538;6.736;2022-08-19T07:15:28;6.50;;;4.28;;
59930;SDS011;45790;51.538;6.736;2022-08-19T07:17:53;6.15;;;4.55;;
59930;SDS011;45790;51.538;6.736;2022-08-19T07:20:18;5.00;;;3.80;;
59930;SDS011;45790;51.538;6.736;2022-08-19T07:22:44;6.43;;;4.40;;
59930;SDS011;45790;51.538;6.736;2022-08-19T07:25:10;6.00;;;4.43;;
59930;SDS011;45790;51.538;6.736;2022-08-19T07:27:36;6.38;;;4.53;;
59930;SDS011;45790;51.538;6.736;2022-08-19T07:30:02;4.63;;;4.10;;
59930;SDS011;45790;51.538;6.736;2022-08-19T07:32:28;6.90;;;4.70;;
59930;SDS011;45790;51.538;6.736;2022-08-19T07:34:54;5.93;;;4.03;;
59930;SDS011;45790;51.538;6.736;2022-08-19T07:37:20;6.25;;;4.65;;
59930;SDS011;45790;51.538;6.736;2022-08-19T07:39:45;6.30;;;4.88;;
59930;SDS011;45790;51.538;6.736;2022-08-19T07:42:10;5.32;;;4.30;;
59930;SDS011;45790;51.538;6.736;2022-08-19T07:44:37;6.75;;;4.60;;
59930;SDS011;45790;51.538;6.736;2022-08-19T07:47:03;5.95;;;4.10;;
59930;SDS011;45790;51.538;6.736;2022-08-19T07:49:29;7.18;;;4.10;;
59930;SDS011;45790;51.538;6.736;2022-08-19T07:51:56;7.05;;;4.47;;
59930;SDS011;45790;51.538;6.736;2022-08-19T07:54:22;6.38;;;4.43;;
59930;SDS011;45790;51.538;6.736;2022-08-19T07:56:49;6.15;;;4.60;;
59930;SDS011;45790;51.538;6.736;2022-08-19T07:59:15;6.07;;;4.95;;
59930;SDS011;45790;51.538;6.736;2022-08-19T08:01:42;6.40;;;4.80;;
59930;SDS011;45790;51.538;6.736;2022-08-19T08:04:08;6.70;;;4.75;;
59930;SDS011;45790;51.538;6.736;2022-08-19T08:06:52;6.90;;;4.22;;
59930;SDS011;45790;51.538;6.736;2022-08-19T08:09:38;6.40;;;4.72;;
59930;SDS011;45790;51.538;6.736;2022-08-19T08:12:09;6.55;;;4.60;;
59930;SDS011;45790;51.538;6.736;2022-08-19T08:14:38;6.57;;;4.07;;
59930;SDS011;45790;51.538;6.736;2022-08-19T08:17:07;5.22;;;4.03;;
59930;SDS011;45790;51.538;6.736;2022-08-19T08:19:33;5.70;;;4.10;;
59930;SDS011;45790;51.538;6.736;2022-08-19T08:21:59;5.97;;;4.18;;
59930;SDS011;45790;51.538;6.736;2022-08-19T08:24:26;4.78;;;3.40;;
59930;SDS011;45790;51.538;6.736;2022-08-19T08:26:52;5.05;;;3.25;;
59930;SDS011;45790;51.538;6.736;2022-08-19T08:29:18;4.93;;;3.45;;
59930;SDS011;45790;51.538;6.736;2022-08-19T08:31:44;4.90;;;3.47;;
59930;SDS011;45790;51.538;6.736;2022-08-19T08:34:10;6.25;;;3.90;;
59930;SDS011;45790;51.538;6.736;2022-08-19T08:36:37;7.32;;;4.50;;
59930;SDS011;45790;51.538;6.736;2022-08-19T08:39:07;5.07;;;3.47;;
59930;SDS011;45790;51.538;6.736;2022-08-19T08:41:53;6.43;;;3.53;;
59930;SDS011;45790;51.538;6.736;2022-08-19T08:44:42;5.63;;;3.53;;
59930;SDS011;45790;51.538;6.736;2022-08-19T08:47:13;5.50;;;3.67;;
59930;SDS011;45790;51.538;6.736;2022-08-19T08:49:41;5.15;;;3.63;;
59930;SDS011;45790;51.538;6.736;2022-08-19T08:54:48;4.95;;;4.05;;
59930;SDS011;45790;51.538;6.736;2022-08-19T08:57:59;5.75;;;4.25;;
59930;SDS011;45790;51.538;6.736;2022-08-19T09:00:10;4.47;;;3.47;;
59930;SDS011;45790;51.538;6.736;2022-08-19T09:02:37;5.82;;;3.72;;
59930;SDS011;45790;51.538;6.736;2022-08-19T09:05:03;6.13;;;3.50;;
59930;SDS011;45790;51.538;6.736;2022-08-19T09:15:34;5.28;;;3.42;;
59930;SDS011;45790;51.538;6.736;2022-08-19T09:20:29;5.85;;;3.95;;
59930;SDS011;45790;51.538;6.736;2022-08-19T09:22:56;4.68;;;3.50;;
59930;SDS011;45790;51.538;6.736;2022-08-19T09:25:21;5.57;;;3.50;;
59930;SDS011;45790;51.538;6.736;2022-08-19T09:27:48;5.90;;;4.40;;
59930;SDS011;45790;51.538;6.736;2022-08-19T09:30:16;5.93;;;4.28;;
59930;SDS011;45790;51.538;6.736;2022-08-19T09:32:43;5.07;;;3.78;;
59930;SDS011;45790;51.538;6.736;2022-08-19T09:35:09;6.05;;;3.72;;
59930;SDS011;45790;51.538;6.736;2022-08-19T09:37:35;8.77;;;4.30;;
59930;SDS011;45790;51.538;6.736;2022-08-19T09:40:00;7.53;;;3.70;;
59930;SDS011;45790;51.538;6.736;2022-08-19T09:42:26;5.03;;;4.28;;
59930;SDS011;45790;51.538;6.736;2022-08-19T09:44:51;5.20;;;3.75;;
59930;SDS011;45790;51.538;6.736;2022-08-19T09:47:16;6.30;;;3.88;;
59930;SDS011;45790;51.538;6.736;2022-08-19T09:49:42;5.20;;;3.90;;
59930;SDS011;45790;51.538;6.736;2022-08-19T09:52:10;7.25;;;4.40;;
59930;SDS011;45790;51.538;6.736;2022-08-19T09:54:36;5.65;;;4.30;;
59930;SDS011;45790;51.538;6.736;2022-08-19T09:57:02;6.35;;;4.53;;
59930;SDS011;45790;51.538;6.736;2022-08-19T09:59:28;6.07;;;4.30;;
59930;SDS011;45790;51.538;6.736;2022-08-19T10:01:54;6.05;;;4.07;;
59930;SDS011;45790;51.538;6.736;2022-08-19T10:04:20;10.85;;;8.52;;
59930;SDS011;45790;51.538;6.736;2022-08-19T10:06:46;14.05;;;9.70;;
59930;SDS011;45790;51.538;6.736;2022-08-19T10:09:13;14.00;;;9.02;;
59930;SDS011;45790;51.538;6.736;2022-08-19T10:11:40;11.05;;;8.15;;
59930;SDS011;45790;51.538;6.736;2022-08-19T10:14:07;11.98;;;8.25;;
59930;SDS011;45790;51.538;6.736;2022-08-19T10:16:33;11.40;;;7.65;;
59930;SDS011;45790;51.538;6.736;2022-08-19T10:18:58;12.30;;;7.80;;
59930;SDS011;45790;51.538;6.736;2022-08-19T10:21:28;9.50;;;7.15;;
59930;SDS011;45790;51.538;6.736;2022-08-19T10:23:57;12.50;;;7.18;;
59930;SDS011;45790;51.538;6.736;2022-08-19T10:26:28;8.85;;;6.97;;
59930;SDS011;45790;51.538;6.736;2022-08-19T10:28:56;8.68;;;6.68;;
59930;SDS011;45790;51.538;6.736;2022-08-19T10:31:29;10.45;;;7.35;;
59930;SDS011;45790;51.538;6.736;2022-08-19T10:33:55;10.30;;;6.50;;
59930;SDS011;45790;51.538;6.736;2022-08-19T10:36:28;9.18;;;6.57;;
59930;SDS011;45790;51.538;6.736;2022-08-19T10:39:00;9.27;;;6.78;;
59930;SDS011;45790;51.538;6.736;2022-08-19T10:41:29;7.85;;;6.32;;
59930;SDS011;45790;51.538;6.736;2022-08-19T10:43:59;9.02;;;6.97;;
59930;SDS011;45790;51.538;6.736;2022-08-19T10:46:26;8.75;;;6.78;;
59930;SDS011;45790;51.538;6.736;2022-08-19T10:48:52;8.60;;;6.63;;
59930;SDS011;45790;51.538;6.736;2022-08-19T10:51:19;9.13;;;6.50;;
59930;SDS011;45790;51.538;6.736;2022-08-19T10:54:04;9.50;;;6.40;;
59930;SDS011;45790;51.538;6.736;2022-08-19T10:56:29;10.30;;;6.68;;
59930;SDS011;45790;51.538;6.736;2022-08-19T10:59:14;7.95;;;6.88;;
59930;SDS011;45790;51.538;6.736;2022-08-19T11:01:41;7.88;;;6.32;;
59930;SDS011;45790;51.538;6.736;2022-08-19T11:04:08;9.15;;;6.30;;
59930;SDS011;45790;51.538;6.736;2022-08-19T11:06:36;7.82;;;6.65;;
59930;SDS011;45790;51.538;6.736;2022-08-19T11:09:03;9.75;;;6.57;;
59930;SDS011;45790;51.538;6.736;2022-08-19T11:11:29;10.45;;;6.35;;
59930;SDS011;45790;51.538;6.736;2022-08-19T11:13:55;8.25;;;6.20;;
59930;SDS011;45790;51.538;6.736;2022-08-19T11:16:21;7.30;;;6.53;;
59930;SDS011;45790;51.538;6.736;2022-08-19T11:18:49;8.73;;;6.32;;
59930;SDS011;45790;51.538;6.736;2022-08-19T11:21:17;8.48;;;6.20;;
59930;SDS011;45790;51.538;6.736;2022-08-19T11:23:44;7.63;;;6.07;;
59930;SDS011;45790;51.538;6.736;2022-08-19T11:26:10;7.18;;;5.75;;
59930;SDS011;45790;51.538;6.736;2022-08-19T11:28:36;7.05;;;6.10;;
59930;SDS011;45790;51.538;6.736;2022-08-19T11:31:01;7.72;;;5.80;;
59930;SDS011;45790;51.538;6.736;2022-08-19T11:33:28;9.90;;;5.57;;
59930;SDS011;45790;51.538;6.736;2022-08-19T11:35:56;6.93;;;5.05;;
59930;SDS011;45790;51.538;6.736;2022-08-19T11:38:22;8.15;;;5.63;;
59930;SDS011;45790;51.538;6.736;2022-08-19T11:40:53;8.15;;;5.43;;
59930;SDS011;45790;51.538;6.736;2022-08-19T11:43:25;6.07;;;5.05;;
59930;SDS011;45790;51.538;6.736;2022-08-19T11:45:52;7.05;;;5.72;;
59930;SDS011;45790;51.538;6.736;2022-08-19T11:48:18;6.88;;;5.20;;
59930;SDS011;45790;51.538;6.736;2022-08-19T11:50:46;7.03;;;5.30;;
59930;SDS011;45790;51.538;6.736;2022-08-19T11:53:16;6.45;;;5.50;;
59930;SDS011;45790;51.538;6.736;2022-08-19T11:55:44;6.68;;;5.47;;
59930;SDS011;45790;51.538;6.736;2022-08-19T11:58:10;6.07;;;5.03;;
59930;SDS011;45790;51.538;6.736;2022-08-19T12:00:35;6.28;;;5.25;;
59930;SDS011;45790;51.538;6.736;2022-08-19T12:03:01;6.78;;;4.80;;
59930;SDS011;45790;51.538;6.736;2022-08-19T12:05:26;6.07;;;4.93;;
59930;SDS011;45790;51.538;6.736;2022-08-19T12:07:52;6.38;;;5.28;;
59930;SDS011;45790;51.538;6.736;2022-08-19T12:10:19;7.03;;;4.72;;
59930;SDS011;45790;51.538;6.736;2022-08-19T12:12:44;10.48;;;5.22;;
59930;SDS011;45790;51.538;6.736;2022-08-19T12:15:10;5.60;;;4.57;;
59930;SDS011;45790;51.538;6.736;2022-08-19T12:17:36;6.30;;;5.00;;
59930;SDS011;45790;51.538;6.736;2022-08-19T12:20:02;5.85;;;4.63;;
59930;SDS011;45790;51.538;6.736;2022-08-19T12:22:29;6.65;;;5.07;;
59930;SDS011;45790;51.538;6.736;2022-08-19T12:24:54;5.32;;;4.38;;
59930;SDS011;45790;51.538;6.736;2022-08-19T12:27:20;6.13;;;4.80;;
59930;SDS011;45790;51.538;6.736;2022-08-19T12:29:45;10.45;;;4.88;;
59930;SDS011;45790;51.538;6.736;2022-08-19T12:32:11;6.55;;;4.63;;
59930;SDS011;45790;51.538;6.736;2022-08-19T12:34:36;6.07;;;4.30;;
59930;SDS011;45790;51.538;6.736;2022-08-19T12:37:03;7.47;;;4.35;;
59930;SDS011;45790;51.538;6.736;2022-08-19T12:39:29;6.32;;;4.28;;
59930;SDS011;45790;51.538;6.736;2022-08-19T12:41:56;6.80;;;4.22;;
59930;SDS011;45790;51.538;6.736;2022-08-19T12:44:22;4.97;;;3.97;;
59930;SDS011;45790;51.538;6.736;2022-08-19T12:46:48;6.32;;;4.60;;
59930;SDS011;45790;51.538;6.736;2022-08-19T12:49:14;6.70;;;4.40;;
59930;SDS011;45790;51.538;6.736;2022-08-19T12:51:40;6.40;;;4.25;;
59930;SDS011;45790;51.538;6.736;2022-08-19T12:54:06;5.82;;;4.65;;
59930;SDS011;45790;51.538;6.736;2022-08-19T12:56:31;7.15;;;4.00;;
59930;SDS011;45790;51.538;6.736;2022-08-19T12:59:00;6.05;;;4.30;;
59930;SDS011;45790;51.538;6.736;2022-08-19T13:01:26;6.22;;;4.03;;
59930;SDS011;45790;51.538;6.736;2022-08-19T13:03:52;5.65;;;3.90;;
59930;SDS011;45790;51.538;6.736;2022-08-19T13:06:18;6.38;;;3.95;;
59930;SDS011;45790;51.538;6.736;2022-08-19T13:08:43;5.75;;;4.25;;
59930;SDS011;45790;51.538;6.736;2022-08-19T13:13:36;5.32;;;4.07;;
59930;SDS011;45790;51.538;6.736;2022-08-19T13:16:05;4.80;;;3.83;;
59930;SDS011;45790;51.538;6.736;2022-08-19T13:18:31;4.30;;;3.35;;
59930;SDS011;45790;51.538;6.736;2022-08-19T13:20:56;5.95;;;3.70;;
59930;SDS011;45790;51.538;6.736;2022-08-19T13:23:22;5.13;;;3.50;;
59930;SDS011;45790;51.538;6.736;2022-08-19T13:25:55;4.38;;;3.70;;
59930;SDS011;45790;51.538;6.736;2022-08-19T13:28:23;5.53;;;4.00;;
59930;SDS011;45790;51.538;6.736;2022-08-19T13:30:49;3.88;;;3.40;;
59930;SDS011;45790;51.538;6.736;2022-08-19T13:33:32;4.50;;;3.42;;
59930;SDS011;45790;51.538;6.736;2022-08-19T13:35:59;6.25;;;4.28;;
59930;SDS011;45790;51.538;6.736;2022-08-19T13:38:25;5.18;;;4.28;;
59930;SDS011;45790;51.538;6.736;2022-08-19T13:40:52;6.03;;;4.00;;
59930;SDS011;45790;51.538;6.736;2022-08-19T13:43:19;6.35;;;3.95;;
59930;SDS011;45790;51.538;6.736;2022-08-19T13:45:53;5.90;;;4.32;;
59930;SDS011;45790;51.538;6.736;2022-08-19T13:48:25;5.35;;;4.45;;
59930;SDS011;45790;51.538;6.736;2022-08-19T13:50:51;5.30;;;4.00;;
59930;SDS011;45790;51.538;6.736;2022-08-19T13:53:17;5.72;;;4.18;;
59930;SDS011;45790;51.538;6.736;2022-08-19T13:55:42;5.63;;;4.40;;
59930;SDS011;45790;51.538;6.736;2022-08-19T13:58:08;6.25;;;4.40;;
59930;SDS011;45790;51.538;6.736;2022-08-19T14:00:36;6.35;;;4.43;;
59930;SDS011;45790;51.538;6.736;2022-08-19T14:03:04;7.10;;;5.03;;
59930;SDS011;45790;51.538;6.736;2022-08-19T14:05:29;6.53;;;5.47;;
59930;SDS011;45790;51.538;6.736;2022-08-19T14:07:55;7.60;;;5.32;;
59930;SDS011;45790;51.538;6.736;2022-08-19T14:10:21;6.05;;;4.40;;
59930;SDS011;45790;51.538;6.736;2022-08-19T14:12:48;5.07;;;4.18;;
59930;SDS011;45790;51.538;6.736;2022-08-19T14:15:13;5.00;;;4.20;;
59930;SDS011;45790;51.538;6.736;2022-08-19T14:17:40;8.02;;;4.65;;
59930;SDS011;45790;51.538;6.736;2022-08-19T14:20:07;9.05;;;5.28;;
59930;SDS011;45790;51.538;6.736;2022-08-19T14:22:38;5.25;;;4.55;;
59930;SDS011;45790;51.538;6.736;2022-08-19T14:25:07;7.07;;;4.40;;
59930;SDS011;45790;51.538;6.736;2022-08-19T14:27:34;6.53;;;4.50;;
59930;SDS011;45790;51.538;6.736;2022-08-19T14:30:01;7.10;;;4.50;;
59930;SDS011;45790;51.538;6.736;2022-08-19T14:32:31;5.97;;;4.20;;
59930;SDS011;45790;51.538;6.736;2022-08-19T14:34:56;6.15;;;4.30;;
59930;SDS011;45790;51.538;6.736;2022-08-19T14:37:22;5.80;;;4.22;;
59930;SDS011;45790;51.538;6.736;2022-08-19T14:39:47;8.60;;;4.55;;
59930;SDS011;45790;51.538;6.736;2022-08-19T14:42:13;8.05;;;5.13;;
59930;SDS011;45790;51.538;6.736;2022-08-19T14:44:39;6.28;;;4.53;;
59930;SDS011;45790;51.538;6.736;2022-08-19T14:47:05;5.72;;;4.25;;
59930;SDS011;45790;51.538;6.736;2022-08-19T14:49:32;5.80;;;4.32;;
59930;SDS011;45790;51.538;6.736;2022-08-19T14:51:57;7.32;;;5.40;;
59930;SDS011;45790;51.538;6.736;2022-08-19T14:54:23;7.15;;;4.97;;
59930;SDS011;45790;51.538;6.736;2022-08-19T14:56:48;6.05;;;4.70;;
59930;SDS011;45790;51.538;6.736;2022-08-19T14:59:14;6.85;;;4.70;;
59930;SDS011;45790;51.538;6.736;2022-08-19T15:01:39;8.43;;;5.43;;
59930;SDS011;45790;51.538;6.736;2022-08-19T15:04:04;7.75;;;5.57;;
59930;SDS011;45790;51.538;6.736;2022-08-19T15:06:30;6.15;;;5.03;;
59930;SDS011;45790;51.538;6.736;2022-08-19T15:08:56;8.10;;;6.10;;
59930;SDS011;45790;51.538;6.736;2022-08-19T15:11:23;7.43;;;5.75;;
59930;SDS011;45790;51.538;6.736;2022-08-19T15:13:50;7.63;;;6.22;;
59930;SDS011;45790;51.538;6.736;2022-08-19T15:16:16;8.18;;;6.05;;
59930;SDS011;45790;51.538;6.736;2022-08-19T15:18:42;8.70;;;6.13;;